sensor_id;sensor_type;location;lat;lon;timestamp;temperature;humidity
24232;DHT22;12364;47.810;8.810;2024-02-15T04:46:29;6.70;99.90
24232;DHT22;12364;47.810;8.810;2024-02-15T04:48:56;6.50;99.90
24232;DHT22;12364;47.810;8.810;2024-02-15T04:51:25;6.30;99.90
24232;DHT22;12364;47.810;8.810;2024-02-15T04:53:54;6.20;99.90
24232;DHT22;12364;47.810;8.810;2024-02-15T04:56:21;6.40;99.90
24232;DHT22;12364;47.810;8.810;2024-02-15T05:01:33;6.20;99.90
24232;DHT22;12364;47.810;8.810;2024-02-15T05:04:00;6.10;99.90
24232;DHT22;12364;47.810;8.810;2024-02-15T05:06:33;6.10;99.90
24232;DHT22;12364;47.810;8.810;2024-02-15T05:09:00;6.10;99.90
24232;DHT22;12364;47.810;8.810;2024-02-15T05:11:27;6.00;99.90
24232;DHT22;12364;47.810;8.810;2024-02-15T05:13:55;5.80;99.90
24232;DHT22;12364;47.810;8.810;2024-02-15T05:16:22;5.70;99.90
24232;DHT22;12364;47.810;8.810;2024-02-15T05:18:49;5.60;99.90
24232;DHT22;12364;47.810;8.810;2024-02-15T05:21:17;5.80;99.90
24232;DHT22;12364;47.810;8.810;2024-02-15T05:23:44;5.90;99.90
24232;DHT22;12364;47.810;8.810;2024-02-15T05:26:11;5.90;99.90
24232;DHT22;12364;47.810;8.810;2024-02-15T05:28:43;6.10;99.90
24232;DHT22;12364;47.810;8.810;2024-02-15T05:31:14;6.30;99.90
24232;DHT22;12364;47.810;8.810;2024-02-15T05:33:44;7.00;99.90
24232;DHT22;12364;47.810;8.810;2024-02-15T05:36:12;7.30;99.90
24232;DHT22;12364;47.810;8.810;2024-02-15T05:38:39;7.10;99.90
24232;DHT22;12364;47.810;8.810;2024-02-15T05:41:07;6.70;99.90
24232;DHT22;12364;47.810;8.810;2024-02-15T05:43:38;6.50;99.90
24232;DHT22;12364;47.810;8.810;2024-02-15T05:46:05;6.50;99.90
24232;DHT22;12364;47.810;8.810;2024-02-15T05:48:36;6.40;99.90
24232;DHT22;12364;47.810;8.810;2024-02-15T05:51:05;6.20;99.90
24232;DHT22;12364;47.810;8.810;2024-02-15T05:53:32;6.20;99.90
24232;DHT22;12364;47.810;8.810;2024-02-15T05:56:06;6.20;99.90
24232;DHT22;12364;47.810;8.810;2024-02-15T05:58:37;6.10;99.90
24232;DHT22;12364;47.810;8.810;2024-02-15T06:01:05;6.00;99.90
24232;DHT22;12364;47.810;8.810;2024-02-15T06:03:34;6.00;99.90
24232;DHT22;12364;47.810;8.810;2024-02-15T06:06:02;6.00;99.90
24232;DHT22;12364;47.810;8.810;2024-02-15T06:08:33;6.00;99.90
24232;DHT22;12364;47.810;8.810;2024-02-15T06:11:01;6.40;99.90
24232;DHT22;12364;47.810;8.810;2024-02-15T06:13:29;6.60;99.90
24232;DHT22;12364;47.810;8.810;2024-02-15T06:15:56;6.70;99.90
24232;DHT22;12364;47.810;8.810;2024-02-15T06:18:24;6.30;99.90
24232;DHT22;12364;47.810;8.810;2024-02-15T06:20:52;5.90;99.90
24232;DHT22;12364;47.810;8.810;2024-02-15T06:23:22;5.70;99.90
24232;DHT22;12364;47.810;8.810;2024-02-15T06:25:51;5.80;99.90
24232;DHT22;12364;47.810;8.810;2024-02-15T06:28:20;5.70;99.90
24232;DHT22;12364;47.810;8.810;2024-02-15T06:31:07;5.70;99.90
24232;DHT22;12364;47.810;8.810;2024-02-15T06:33:52;5.90;99.90
24232;DHT22;12364;47.810;8.810;2024-02-15T06:36:45;6.00;99.90
24232;DHT22;12364;47.810;8.810;2024-02-15T06:39:31;5.60;99.90
24232;DHT22;12364;47.810;8.810;2024-02-15T06:42:05;5.40;99.90
24232;DHT22;12364;47.810;8.810;2024-02-15T06:44:33;5.40;99.90
24232;DHT22;12364;47.810;8.810;2024-02-15T06:47:00;5.50;99.90
24232;DHT22;12364;47.810;8.810;2024-02-15T06:49:27;5.50;99.90
24232;DHT22;12364;47.810;8.810;2024-02-15T06:51:55;5.30;99.90
24232;DHT22;12364;47.810;8.810;2024-02-15T06:54:23;5.20;99.90
24232;DHT22;12364;47.810;8.810;2024-02-15T06:56:50;5.40;99.90
24232;DHT22;12364;47.810;8.810;2024-02-15T06:59:21;5.70;99.90
24232;DHT22;12364;47.810;8.810;2024-02-15T07:01:49;6.10;99.90
24232;DHT22;12364;47.810;8.810;2024-02-15T07:04:18;5.90;99.90
24232;DHT22;12364;47.810;8.810;2024-02-15T07:06:47;5.80;99.90
24232;DHT22;12364;47.810;8.810;2024-02-15T07:09:16;5.60;99.90
24232;DHT22;12364;47.810;8.810;2024-02-15T07:11:46;5.60;99.90
24232;DHT22;12364;47.810;8.810;2024-02-15T07:14:17;5.60;99.90
24232;DHT22;12364;47.810;8.810;2024-02-15T07:16:45;5.70;99.90
24232;DHT22;12364;47.810;8.810;2024-02-15T07:19:13;5.80;99.90
24232;DHT22;12364;47.810;8.810;2024-02-15T07:21:40;6.10;99.90
24232;DHT22;12364;47.810;8.810;2024-02-15T07:24:07;6.10;99.90
24232;DHT22;12364;47.810;8.810;2024-02-15T07:26:35;6.20;99.90
24232;DHT22;12364;47.810;8.810;2024-02-15T07:29:03;6.00;99.90
24232;DHT22;12364;47.810;8.810;2024-02-15T07:31:34;6.00;99.90
24232;DHT22;12364;47.810;8.810;2024-02-15T07:34:02;5.70;99.90
24232;DHT22;12364;47.810;8.810;2024-02-15T07:36:32;5.50;99.90
24232;DHT22;12364;47.810;8.810;2024-02-15T07:38:59;5.60;99.90
24232;DHT22;12364;47.810;8.810;2024-02-15T07:41:30;5.80;99.90
24232;DHT22;12364;47.810;8.810;2024-02-15T07:44:00;5.90;99.90
24232;DHT22;12364;47.810;8.810;2024-02-15T07:46:28;6.00;99.90
24232;DHT22;12364;47.810;8.810;2024-02-15T07:48:56;6.10;99.90
24232;DHT22;12364;47.810;8.810;2024-02-15T07:51:24;6.10;99.90
24232;DHT22;12364;47.810;8.810;2024-02-15T07:53:52;6.20;99.90
24232;DHT22;12364;47.810;8.810;2024-02-15T07:56:19;6.20;99.90
24232;DHT22;12364;47.810;8.810;2024-02-15T07:58:47;6.50;99.90
24232;DHT22;12364;47.810;8.810;2024-02-15T08:01:19;6.50;99.90
24232;DHT22;12364;47.810;8.810;2024-02-15T08:03:52;6.40;99.90
24232;DHT22;12364;47.810;8.810;2024-02-15T08:06:21;5.90;99.90
24232;DHT22;12364;47.810;8.810;2024-02-15T08:08:52;6.00;99.90
24232;DHT22;12364;47.810;8.810;2024-02-15T08:11:20;6.10;99.90
24232;DHT22;12364;47.810;8.810;2024-02-15T08:13:47;6.20;99.90
24232;DHT22;12364;47.810;8.810;2024-02-15T08:16:17;6.30;99.90
24232;DHT22;12364;47.810;8.810;2024-02-15T08:18:45;6.50;99.90
24232;DHT22;12364;47.810;8.810;2024-02-15T08:21:13;6.70;99.90
24232;DHT22;12364;47.810;8.810;2024-02-15T08:23:41;6.70;99.90
24232;DHT22;12364;47.810;8.810;2024-02-15T08:26:09;6.70;99.90
24232;DHT22;12364;47.810;8.810;2024-02-15T08:28:38;6.80;99.90
24232;DHT22;12364;47.810;8.810;2024-02-15T08:31:05;7.00;99.90
24232;DHT22;12364;47.810;8.810;2024-02-15T08:33:34;7.00;99.90
24232;DHT22;12364;47.810;8.810;2024-02-15T08:36:03;7.00;99.90
24232;DHT22;12364;47.810;8.810;2024-02-15T08:38:30;7.20;99.90
24232;DHT22;12364;47.810;8.810;2024-02-15T08:40:57;7.30;99.90
24232;DHT22;12364;47.810;8.810;2024-02-15T08:43:24;7.40;99.90
24232;DHT22;12364;47.810;8.810;2024-02-15T08:45:51;7.40;99.90
24232;DHT22;12364;47.810;8.810;2024-02-15T08:48:19;7.50;99.90
24232;DHT22;12364;47.810;8.810;2024-02-15T08:50:49;7.60;99.90
24232;DHT22;12364;47.810;8.810;2024-02-15T08:53:16;7.80;99.90
24232;DHT22;12364;47.810;8.810;2024-02-15T08:55:45;8.00;99.90
24232;DHT22;12364;47.810;8.810;2024-02-15T08:58:12;8.00;99.90
24232;DHT22;12364;47.810;8.810;2024-02-15T09:00:39;7.90;99.90
24232;DHT22;12364;47.810;8.810;2024-02-15T09:03:11;8.10;99.90
24232;DHT22;12364;47.810;8.810;2024-02-15T09:05:41;8.30;99.90
24232;DHT22;12364;47.810;8.810;2024-02-15T09:08:09;8.30;99.90
24232;DHT22;12364;47.810;8.810;2024-02-15T09:10:36;8.20;99.90
24232;DHT22;12364;47.810;8.810;2024-02-15T09:13:03;8.40;99.90
24232;DHT22;12364;47.810;8.810;2024-02-15T09:15:30;8.40;99.90
24232;DHT22;12364;47.810;8.810;2024-02-15T09:17:58;8.50;99.90
24232;DHT22;12364;47.810;8.810;2024-02-15T09:20:25;8.60;99.90
24232;DHT22;12364;47.810;8.810;2024-02-15T09:22:55;8.70;99.90
24232;DHT22;12364;47.810;8.810;2024-02-15T09:25:23;8.70;99.90
24232;DHT22;12364;47.810;8.810;2024-02-15T09:27:50;8.80;99.90
24232;DHT22;12364;47.810;8.810;2024-02-15T09:30:18;9.10;99.90
24232;DHT22;12364;47.810;8.810;2024-02-15T09:32:45;9.20;99.90
24232;DHT22;12364;47.810;8.810;2024-02-15T09:35:13;9.20;99.90
24232;DHT22;12364;47.810;8.810;2024-02-15T09:37:47;9.10;99.90
24232;DHT22;12364;47.810;8.810;2024-02-15T09:40:17;9.30;99.90
24232;DHT22;12364;47.810;8.810;2024-02-15T09:42:46;9.40;99.90
24232;DHT22;12364;47.810;8.810;2024-02-15T09:45:13;9.60;99.90
24232;DHT22;12364;47.810;8.810;2024-02-15T09:47:45;9.70;99.90
24232;DHT22;12364;47.810;8.810;2024-02-15T09:50:13;9.80;99.90
24232;DHT22;12364;47.810;8.810;2024-02-15T09:52:59;9.90;99.90
24232;DHT22;12364;47.810;8.810;2024-02-15T09:55:29;9.80;99.90
24232;DHT22;12364;47.810;8.810;2024-02-15T09:57:56;9.80;99.90
24232;DHT22;12364;47.810;8.810;2024-02-15T10:00:23;9.80;99.90
24232;DHT22;12364;47.810;8.810;2024-02-15T10:02:50;9.90;99.90
24232;DHT22;12364;47.810;8.810;2024-02-15T10:05:20;10.00;99.90
24232;DHT22;12364;47.810;8.810;2024-02-15T10:07:47;10.10;99.90
24232;DHT22;12364;47.810;8.810;2024-02-15T10:10:18;10.30;99.90
24232;DHT22;12364;47.810;8.810;2024-02-15T10:12:47;10.30;99.90
24232;DHT22;12364;47.810;8.810;2024-02-15T10:18:02;10.50;99.90
24232;DHT22;12364;47.810;8.810;2024-02-15T10:20:30;10.50;99.90
24232;DHT22;12364;47.810;8.810;2024-02-15T10:25:28;10.40;99.90
24232;DHT22;12364;47.810;8.810;2024-02-15T10:28:02;10.40;99.90
24232;DHT22;12364;47.810;8.810;2024-02-15T10:30:30;10.50;99.90
24232;DHT22;12364;47.810;8.810;2024-02-15T10:32:59;10.50;99.90
24232;DHT22;12364;47.810;8.810;2024-02-15T10:35:26;10.60;99.90
24232;DHT22;12364;47.810;8.810;2024-02-15T10:38:04;10.70;99.90
24232;DHT22;12364;47.810;8.810;2024-02-15T10:40:31;10.70;99.90
24232;DHT22;12364;47.810;8.810;2024-02-15T10:42:58;10.70;99.90
24232;DHT22;12364;47.810;8.810;2024-02-15T10:45:26;10.80;99.90
24232;DHT22;12364;47.810;8.810;2024-02-15T10:47:53;10.90;99.90
24232;DHT22;12364;47.810;8.810;2024-02-15T10:50:21;10.80;99.90
24232;DHT22;12364;47.810;8.810;2024-02-15T10:52:58;10.70;99.90
24232;DHT22;12364;47.810;8.810;2024-02-15T10:58:06;10.60;99.90
24232;DHT22;12364;47.810;8.810;2024-02-15T11:00:33;10.60;99.90
24232;DHT22;12364;47.810;8.810;2024-02-15T11:03:04;10.80;99.90
24232;DHT22;12364;47.810;8.810;2024-02-15T11:05:35;10.80;99.90
24232;DHT22;12364;47.810;8.810;2024-02-15T11:08:06;10.90;99.90
24232;DHT22;12364;47.810;8.810;2024-02-15T11:10:35;10.90;99.90
24232;DHT22;12364;47.810;8.810;2024-02-15T11:13:03;11.00;99.90
24232;DHT22;12364;47.810;8.810;2024-02-15T11:18:03;10.90;99.90
24232;DHT22;12364;47.810;8.810;2024-02-15T11:23:00;11.30;99.90
24232;DHT22;12364;47.810;8.810;2024-02-15T11:25:34;11.10;99.90
24232;DHT22;12364;47.810;8.810;2024-02-15T11:30:48;11.00;99.90
24232;DHT22;12364;47.810;8.810;2024-02-15T11:33:34;11.00;99.90
24232;DHT22;12364;47.810;8.810;2024-02-15T11:36:03;10.90;99.90
24232;DHT22;12364;47.810;8.810;2024-02-15T11:38:34;11.20;99.90
24232;DHT22;12364;47.810;8.810;2024-02-15T11:41:02;11.10;99.90
24232;DHT22;12364;47.810;8.810;2024-02-15T11:46:13;11.40;99.90
24232;DHT22;12364;47.810;8.810;2024-02-15T11:48:40;11.60;99.90
24232;DHT22;12364;47.810;8.810;2024-02-15T11:51:08;11.60;99.90
24232;DHT22;12364;47.810;8.810;2024-02-15T11:53:38;11.40;99.90
24232;DHT22;12364;47.810;8.810;2024-02-15T11:56:06;11.40;99.90
24232;DHT22;12364;47.810;8.810;2024-02-15T11:58:37;11.60;99.90
24232;DHT22;12364;47.810;8.810;2024-02-15T12:01:29;11.60;99.90
24232;DHT22;12364;47.810;8.810;2024-02-15T12:04:14;11.50;99.90
24232;DHT22;12364;47.810;8.810;2024-02-15T12:06:59;11.60;99.90
24232;DHT22;12364;47.810;8.810;2024-02-15T12:09:45;11.70;99.90
24232;DHT22;12364;47.810;8.810;2024-02-15T12:12:33;12.00;99.90
24232;DHT22;12364;47.810;8.810;2024-02-15T12:15:18;11.90;99.90
24232;DHT22;12364;47.810;8.810;2024-02-15T12:18:17;12.00;99.90
24232;DHT22;12364;47.810;8.810;2024-02-15T12:21:03;11.80;99.90
24232;DHT22;12364;47.810;8.810;2024-02-15T12:23:31;11.60;99.90
24232;DHT22;12364;47.810;8.810;2024-02-15T12:26:01;12.00;99.90
24232;DHT22;12364;47.810;8.810;2024-02-15T12:28:30;12.00;99.90
24232;DHT22;12364;47.810;8.810;2024-02-15T12:30:58;11.90;99.90
24232;DHT22;12364;47.810;8.810;2024-02-15T12:33:25;12.00;99.90
24232;DHT22;12364;47.810;8.810;2024-02-15T12:36:28;12.10;99.90
24232;DHT22;12364;47.810;8.810;2024-02-15T12:38:57;12.20;99.90
24232;DHT22;12364;47.810;8.810;2024-02-15T12:41:25;12.40;99.90
24232;DHT22;12364;47.810;8.810;2024-02-15T12:43:52;12.50;99.90
24232;DHT22;12364;47.810;8.810;2024-02-15T12:46:19;12.50;99.90
24232;DHT22;12364;47.810;8.810;2024-02-15T12:48:46;12.60;99.90
24232;DHT22;12364;47.810;8.810;2024-02-15T12:51:14;12.70;99.90
24232;DHT22;12364;47.810;8.810;2024-02-15T12:53:42;12.90;99.90
24232;DHT22;12364;47.810;8.810;2024-02-15T12:56:09;12.80;99.90
24232;DHT22;12364;47.810;8.810;2024-02-15T12:58:36;12.70;99.90
24232;DHT22;12364;47.810;8.810;2024-02-15T13:01:03;12.50;99.90
24232;DHT22;12364;47.810;8.810;2024-02-15T13:03:31;12.50;99.90
24232;DHT22;12364;47.810;8.810;2024-02-15T13:05:58;12.60;99.90
24232;DHT22;12364;47.810;8.810;2024-02-15T13:08:25;12.80;99.90
24232;DHT22;12364;47.810;8.810;2024-02-15T13:10:52;13.00;99.90
24232;DHT22;12364;47.810;8.810;2024-02-15T13:13:19;13.00;99.90
24232;DHT22;12364;47.810;8.810;2024-02-15T13:15:48;13.00;99.90
24232;DHT22;12364;47.810;8.810;2024-02-15T13:18:19;13.20;99.90
24232;DHT22;12364;47.810;8.810;2024-02-15T13:20:46;13.20;99.90
24232;DHT22;12364;47.810;8.810;2024-02-15T13:23:16;13.40;99.90
24232;DHT22;12364;47.810;8.810;2024-02-15T13:25:50;13.30;99.90
24232;DHT22;12364;47.810;8.810;2024-02-15T13:28:18;13.50;99.90
24232;DHT22;12364;47.810;8.810;2024-02-15T13:30:46;13.30;99.90
24232;DHT22;12364;47.810;8.810;2024-02-15T13:33:13;13.20;99.90
24232;DHT22;12364;47.810;8.810;2024-02-15T13:35:41;13.00;99.90
24232;DHT22;12364;47.810;8.810;2024-02-15T13:38:09;12.90;99.90
24232;DHT22;12364;47.810;8.810;2024-02-15T13:40:42;12.90;99.90
24232;DHT22;12364;47.810;8.810;2024-02-15T13:43:11;12.60;99.90
24232;DHT22;12364;47.810;8.810;2024-02-15T13:45:39;12.80;99.90
24232;DHT22;12364;47.810;8.810;2024-02-15T13:48:06;12.90;99.90
24232;DHT22;12364;47.810;8.810;2024-02-15T13:50:34;12.90;99.90
24232;DHT22;12364;47.810;8.810;2024-02-15T13:53:02;13.00;99.90
24232;DHT22;12364;47.810;8.810;2024-02-15T13:55:29;12.80;99.90
24232;DHT22;12364;47.810;8.810;2024-02-15T13:57:57;12.80;99.90
24232;DHT22;12364;47.810;8.810;2024-02-15T14:00:25;13.00;99.90
24232;DHT22;12364;47.810;8.810;2024-02-15T14:03:01;13.20;99.90
24232;DHT22;12364;47.810;8.810;2024-02-15T14:05:30;13.40;99.90
24232;DHT22;12364;47.810;8.810;2024-02-15T14:07:57;13.60;99.90
24232;DHT22;12364;47.810;8.810;2024-02-15T14:10:25;13.70;99.90
24232;DHT22;12364;47.810;8.810;2024-02-15T14:12:54;13.80;99.90
24232;DHT22;12364;47.810;8.810;2024-02-15T14:15:28;13.90;99.90
24232;DHT22;12364;47.810;8.810;2024-02-15T14:17:56;13.80;99.90
24232;DHT22;12364;47.810;8.810;2024-02-15T14:20:24;13.90;99.90
24232;DHT22;12364;47.810;8.810;2024-02-15T14:22:51;13.80;99.90
24232;DHT22;12364;47.810;8.810;2024-02-15T14:25:24;13.80;99.90
24232;DHT22;12364;47.810;8.810;2024-02-15T14:27:54;14.10;99.90
24232;DHT22;12364;47.810;8.810;2024-02-15T14:30:23;14.00;99.90
24232;DHT22;12364;47.810;8.810;2024-02-15T14:33:08;13.90;99.90
24232;DHT22;12364;47.810;8.810;2024-02-15T14:35:46;14.00;99.90
24232;DHT22;12364;47.810;8.810;2024-02-15T14:38:13;14.00;99.90
24232;DHT22;12364;47.810;8.810;2024-02-15T14:40:43;13.90;99.90
24232;DHT22;12364;47.810;8.810;2024-02-15T14:43:12;13.80;99.90
24232;DHT22;12364;47.810;8.810;2024-02-15T14:45:45;14.00;99.90
24232;DHT22;12364;47.810;8.810;2024-02-15T14:48:13;14.00;99.90
24232;DHT22;12364;47.810;8.810;2024-02-15T14:50:41;14.00;99.90
24232;DHT22;12364;47.810;8.810;2024-02-15T14:53:08;14.00;99.90
24232;DHT22;12364;47.810;8.810;2024-02-15T14:55:36;14.10;99.90
24232;DHT22;12364;47.810;8.810;2024-02-15T14:58:06;14.20;99.90
24232;DHT22;12364;47.810;8.810;2024-02-15T15:00:39;14.10;99.90
24232;DHT22;12364;47.810;8.810;2024-02-15T15:03:09;14.10;99.90
24232;DHT22;12364;47.810;8.810;2024-02-15T15:05:36;14.10;99.90
24232;DHT22;12364;47.810;8.810;2024-02-15T15:08:22;14.10;99.90
24232;DHT22;12364;47.810;8.810;2024-02-15T15:11:07;14.10;99.90
24232;DHT22;12364;47.810;8.810;2024-02-15T15:13:53;14.00;99.90
24232;DHT22;12364;47.810;8.810;2024-02-15T15:16:20;14.10;99.90
24232;DHT22;12364;47.810;8.810;2024-02-15T15:18:47;14.10;99.90
24232;DHT22;12364;47.810;8.810;2024-02-15T15:21:15;14.10;99.90
24232;DHT22;12364;47.810;8.810;2024-02-15T15:23:43;14.20;99.90
24232;DHT22;12364;47.810;8.810;2024-02-15T15:26:10;14.10;99.90
24232;DHT22;12364;47.810;8.810;2024-02-15T15:28:38;14.20;99.90
24232;DHT22;12364;47.810;8.810;2024-02-15T15:31:05;14.20;99.90
24232;DHT22;12364;47.810;8.810;2024-02-15T15:33:34;14.30;99.90
24232;DHT22;12364;47.810;8.810;2024-02-15T15:36:02;14.20;99.90
24232;DHT22;12364;47.810;8.810;2024-02-15T15:38:30;14.10;99.90
24232;DHT22;12364;47.810;8.810;2024-02-15T15:40:58;14.20;99.90
24232;DHT22;12364;47.810;8.810;2024-02-15T15:43:26;14.10;99.90
24232;DHT22;12364;47.810;8.810;2024-02-15T15:45:53;14.10;99.90
24232;DHT22;12364;47.810;8.810;2024-02-15T15:48:21;14.10;99.90
24232;DHT22;12364;47.810;8.810;2024-02-15T15:50:50;14.10;99.90
24232;DHT22;12364;47.810;8.810;2024-02-15T15:53:18;14.10;99.90
24232;DHT22;12364;47.810;8.810;2024-02-15T15:55:46;14.00;99.90
24232;DHT22;12364;47.810;8.810;2024-02-15T15:58:13;14.10;99.90
24232;DHT22;12364;47.810;8.810;2024-02-15T16:00:40;14.10;99.90
24232;DHT22;12364;47.810;8.810;2024-02-15T16:03:08;14.00;99.90
24232;DHT22;12364;47.810;8.810;2024-02-15T16:05:35;14.00;99.90
24232;DHT22;12364;47.810;8.810;2024-02-15T16:08:04;13.90;99.90
24232;DHT22;12364;47.810;8.810;2024-02-15T16:10:31;13.70;99.90
24232;DHT22;12364;47.810;8.810;2024-02-15T16:12:58;13.80;99.90
24232;DHT22;12364;47.810;8.810;2024-02-15T16:15:27;13.80;99.90
24232;DHT22;12364;47.810;8.810;2024-02-15T16:17:54;13.70;99.90
24232;DHT22;12364;47.810;8.810;2024-02-15T16:20:22;13.70;99.90
24232;DHT22;12364;47.810;8.810;2024-02-15T16:22:49;13.80;99.90
24232;DHT22;12364;47.810;8.810;2024-02-15T16:25:17;13.70;99.90
24232;DHT22;12364;47.810;8.810;2024-02-15T16:27:45;13.70;99.90
24232;DHT22;12364;47.810;8.810;2024-02-15T16:30:13;13.60;99.90
24232;DHT22;12364;47.810;8.810;2024-02-15T16:32:41;13.60;99.90
24232;DHT22;12364;47.810;8.810;2024-02-15T16:35:09;13.60;99.90
24232;DHT22;12364;47.810;8.810;2024-02-15T16:37:38;13.60;99.90
24232;DHT22;12364;47.810;8.810;2024-02-15T16:40:09;13.50;99.90
24232;DHT22;12364;47.810;8.810;2024-02-15T16:42:36;13.40;99.90
24232;DHT22;12364;47.810;8.810;2024-02-15T16:45:10;13.40;99.90
24232;DHT22;12364;47.810;8.810;2024-02-15T16:47:40;13.40;99.90
24232;DHT22;12364;47.810;8.810;2024-02-15T16:50:12;13.40;99.90
24232;DHT22;12364;47.810;8.810;2024-02-15T16:52:40;13.20;99.90
24232;DHT22;12364;47.810;8.810;2024-02-15T16:55:10;13.20;99.90
24232;DHT22;12364;47.810;8.810;2024-02-15T16:57:37;13.20;99.90
24232;DHT22;12364;47.810;8.810;2024-02-15T17:00:08;13.20;99.90
24232;DHT22;12364;47.810;8.810;2024-02-15T17:02:35;13.20;99.90
24232;DHT22;12364;47.810;8.810;2024-02-15T17:05:05;13.20;99.90
24232;DHT22;12364;47.810;8.810;2024-02-15T17:07:35;13.20;99.90
24232;DHT22;12364;47.810;8.810;2024-02-15T17:10:02;13.20;99.90
24232;DHT22;12364;47.810;8.810;2024-02-15T17:12:29;13.20;99.90
24232;DHT22;12364;47.810;8.810;2024-02-15T17:14:56;13.20;99.90
24232;DHT22;12364;47.810;8.810;2024-02-15T17:17:23;13.20;99.90
24232;DHT22;12364;47.810;8.810;2024-02-15T17:19:51;13.10;99.90
24232;DHT22;12364;47.810;8.810;2024-02-15T17:22:18;13.30;99.90
24232;DHT22;12364;47.810;8.810;2024-02-15T17:24:45;13.10;99.90
24232;DHT22;12364;47.810;8.810;2024-02-15T17:27:12;13.10;99.90
24232;DHT22;12364;47.810;8.810;2024-02-15T17:29:40;13.10;99.90
24232;DHT22;12364;47.810;8.810;2024-02-15T17:32:07;13.00;99.90
24232;DHT22;12364;47.810;8.810;2024-02-15T17:34:34;13.00;99.90
24232;DHT22;12364;47.810;8.810;2024-02-15T17:37:02;12.80;99.90
24232;DHT22;12364;47.810;8.810;2024-02-15T17:39:29;12.70;99.90
24232;DHT22;12364;47.810;8.810;2024-02-15T17:41:56;12.60;99.90
24232;DHT22;12364;47.810;8.810;2024-02-15T17:44:23;12.80;99.90
24232;DHT22;12364;47.810;8.810;2024-02-15T17:46:50;12.90;99.90
24232;DHT22;12364;47.810;8.810;2024-02-15T17:49:17;12.70;99.90
24232;DHT22;12364;47.810;8.810;2024-02-15T17:51:45;12.70;99.90
24232;DHT22;12364;47.810;8.810;2024-02-15T17:54:13;12.60;99.90
24232;DHT22;12364;47.810;8.810;2024-02-15T17:56:41;12.60;99.90
24232;DHT22;12364;47.810;8.810;2024-02-15T17:59:08;12.60;99.90
24232;DHT22;12364;47.810;8.810;2024-02-15T18:01:37;12.60;99.90
24232;DHT22;12364;47.810;8.810;2024-02-15T18:04:06;12.80;99.90
24232;DHT22;12364;47.810;8.810;2024-02-15T18:06:33;12.80;99.90
24232;DHT22;12364;47.810;8.810;2024-02-15T18:09:01;12.80;99.90
24232;DHT22;12364;47.810;8.810;2024-02-15T18:11:28;12.70;99.90
24232;DHT22;12364;47.810;8.810;2024-02-15T18:13:55;12.50;99.90
24232;DHT22;12364;47.810;8.810;2024-02-15T18:16:23;12.20;99.90
24232;DHT22;12364;47.810;8.810;2024-02-15T18:18:50;12.20;99.90
24232;DHT22;12364;47.810;8.810;2024-02-15T18:21:19;12.30;99.90
24232;DHT22;12364;47.810;8.810;2024-02-15T18:23:46;12.30;99.90
24232;DHT22;12364;47.810;8.810;2024-02-15T18:26:13;12.30;99.90
24232;DHT22;12364;47.810;8.810;2024-02-15T18:28:40;12.30;99.90
24232;DHT22;12364;47.810;8.810;2024-02-15T18:31:07;12.20;99.90
24232;DHT22;12364;47.810;8.810;2024-02-15T18:33:35;12.30;99.90
24232;DHT22;12364;47.810;8.810;2024-02-15T18:36:07;12.30;99.90
24232;DHT22;12364;47.810;8.810;2024-02-15T18:38:35;12.20;99.90
24232;DHT22;12364;47.810;8.810;2024-02-15T18:41:03;12.10;99.90
24232;DHT22;12364;47.810;8.810;2024-02-15T18:43:33;11.90;99.90
24232;DHT22;12364;47.810;8.810;2024-02-15T18:46:01;11.80;99.90
24232;DHT22;12364;47.810;8.810;2024-02-15T18:48:28;11.80;99.90
24232;DHT22;12364;47.810;8.810;2024-02-15T18:50:56;11.60;99.90
24232;DHT22;12364;47.810;8.810;2024-02-15T18:53:23;11.50;99.90
24232;DHT22;12364;47.810;8.810;2024-02-15T18:55:50;11.70;99.90
24232;DHT22;12364;47.810;8.810;2024-02-15T18:58:19;11.60;99.90
24232;DHT22;12364;47.810;8.810;2024-02-15T19:00:52;11.50;99.90
24232;DHT22;12364;47.810;8.810;2024-02-15T19:03:24;11.30;99.90
24232;DHT22;12364;47.810;8.810;2024-02-15T19:05:52;11.20;99.90
24232;DHT22;12364;47.810;8.810;2024-02-15T19:08:19;11.00;99.90
24232;DHT22;12364;47.810;8.810;2024-02-15T19:10:46;11.30;99.90
24232;DHT22;12364;47.810;8.810;2024-02-15T19:13:13;11.30;99.90
24232;DHT22;12364;47.810;8.810;2024-02-15T19:15:40;11.30;99.90
24232;DHT22;12364;47.810;8.810;2024-02-15T19:18:08;11.30;99.90
24232;DHT22;12364;47.810;8.810;2024-02-15T19:20:35;11.40;99.90
24232;DHT22;12364;47.810;8.810;2024-02-15T19:23:03;11.70;99.90
24232;DHT22;12364;47.810;8.810;2024-02-15T19:25:34;11.90;99.90
24232;DHT22;12364;47.810;8.810;2024-02-15T19:28:01;12.10;99.90
24232;DHT22;12364;47.810;8.810;2024-02-15T19:30:32;12.00;99.90
24232;DHT22;12364;47.810;8.810;2024-02-15T19:32:59;12.10;99.90
24232;DHT22;12364;47.810;8.810;2024-02-15T19:35:27;11.90;99.90
24232;DHT22;12364;47.810;8.810;2024-02-15T19:37:55;11.80;99.90
24232;DHT22;12364;47.810;8.810;2024-02-15T19:40:22;11.80;99.90
24232;DHT22;12364;47.810;8.810;2024-02-15T19:42:49;11.80;99.90
24232;DHT22;12364;47.810;8.810;2024-02-15T19:45:19;11.50;99.90
24232;DHT22;12364;47.810;8.810;2024-02-15T19:47:51;11.10;99.90
24232;DHT22;12364;47.810;8.810;2024-02-15T19:50:21;11.10;99.90
24232;DHT22;12364;47.810;8.810;2024-02-15T19:52:52;11.10;99.90
24232;DHT22;12364;47.810;8.810;2024-02-15T19:55:20;11.10;99.90
24232;DHT22;12364;47.810;8.810;2024-02-15T19:57:49;11.30;99.90
24232;DHT22;12364;47.810;8.810;2024-02-15T20:00:16;11.40;99.90
24232;DHT22;12364;47.810;8.810;2024-02-15T20:02:44;11.40;99.90
24232;DHT22;12364;47.810;8.810;2024-02-15T20:05:12;11.50;99.90
24232;DHT22;12364;47.810;8.810;2024-02-15T20:07:39;11.60;99.90
24232;DHT22;12364;47.810;8.810;2024-02-15T20:10:06;11.80;99.90
24232;DHT22;12364;47.810;8.810;2024-02-15T20:12:35;11.80;99.90
24232;DHT22;12364;47.810;8.810;2024-02-15T20:15:03;11.60;99.90
24232;DHT22;12364;47.810;8.810;2024-02-15T20:17:30;11.60;99.90
24232;DHT22;12364;47.810;8.810;2024-02-15T20:19:58;11.60;99.90
24232;DHT22;12364;47.810;8.810;2024-02-15T20:22:25;11.60;99.90
24232;DHT22;12364;47.810;8.810;2024-02-15T20:24:52;11.60;99.90
24232;DHT22;12364;47.810;8.810;2024-02-15T20:27:20;11.60;99.90
24232;DHT22;12364;47.810;8.810;2024-02-15T20:29:49;11.50;99.90
24232;DHT22;12364;47.810;8.810;2024-02-15T20:32:17;11.50;99.90
24232;DHT22;12364;47.810;8.810;2024-02-15T20:34:45;11.60;99.90
24232;DHT22;12364;47.810;8.810;2024-02-15T20:37:13;11.60;99.90
24232;DHT22;12364;47.810;8.810;2024-02-15T20:39:40;11.40;99.90
24232;DHT22;12364;47.810;8.810;2024-02-15T20:42:07;11.20;99.90
24232;DHT22;12364;47.810;8.810;2024-02-15T20:44:35;11.20;99.90
24232;DHT22;12364;47.810;8.810;2024-02-15T20:47:03;11.10;99.90
24232;DHT22;12364;47.810;8.810;2024-02-15T20:49:39;10.80;99.90
24232;DHT22;12364;47.810;8.810;2024-02-15T20:52:07;10.60;99.90
24232;DHT22;12364;47.810;8.810;2024-02-15T20:54:35;10.60;99.90